Flight Track Log - Related Links

Times and Time Zones

All times are in EDT time to prevent confusion due to time zone crossing. See the N53NW flight status page for this flight to view local times or setup timezone preferences in your user account.


Time Position Orientation Groundspeed Altitude Reporting Facility
EDT Latitude Longitude Course Direction KTS MPH feet Rate Location/Type
Thu 02:00:58 PM 32.6500 -97.0833 70° East 160 184 900  Level Dallas / Fort Worth TRACON
Thu 02:01:58 PM 32.6000 -97.1000 196° South 244 281 2,000 1,850 Climbing Dallas / Fort Worth TRACON
Thu 02:02:58 PM 32.5333 -97.1000 180° South 250 288 4,600 2,550 Climbing Dallas / Fort Worth TRACON
Thu 02:03:58 PM 32.5167 -97.0167 103° East 274 315 7,100 2,700 Climbing Dallas / Fort Worth TRACON
Thu 02:04:58 PM 32.4833 -96.9167 112° Southeast 281 323 10,000 3,000 Climbing Dallas / Fort Worth TRACON
Thu 02:05:58 PM 32.5167 -96.8500 59° Northeast 265 305 13,100 2,800 Climbing Dallas / Fort Worth TRACON
Thu 02:06:58 PM 32.5667 -96.7833 48° Northeast 272 313 15,600 2,000 Climbing Dallas / Fort Worth TRACON
Thu 02:07:00 PM 32.9913 -96.6076 70° East  Level FlightAware Approximate
Thu 02:07:55 PM 32.6208 -96.7450 31° Northeast 294 338 17,000  Level Fort Worth Center
Thu 02:08:55 PM 32.7017 -96.6753 36° Northeast 312 359 17,400 1,050 Climbing Fort Worth Center
Thu 02:09:55 PM 32.7642 -96.6178 38° Northeast 321 369 19,100 1,950 Climbing Fort Worth Center
Thu 02:10:55 PM 32.8389 -96.5506 37° Northeast 316 364 21,300 2,000 Climbing Fort Worth Center
Thu 02:11:55 PM 32.8989 -96.4931 39° Northeast 316 364 23,100 1,650 Climbing Fort Worth Center
Thu 02:12:55 PM 32.9694 -96.4303 37° Northeast 316 364 24,600 1,500 Climbing Fort Worth Center
Thu 02:13:55 PM 33.0419 -96.3675 36° Northeast 316 364 26,100 1,500 Climbing Fort Worth Center
Thu 02:14:55 PM 33.0997 -96.2828 51° Northeast 316 364 27,600 1,500 Climbing Fort Worth Center
Thu 02:15:55 PM 33.1300 -96.1781 71° East 316 364 29,100 1,500 Climbing Fort Worth Center
Thu 02:16:55 PM 33.1603 -96.0708 71° East 316 364 30,600 950 Climbing Fort Worth Center
Thu 02:17:55 PM 33.1986 -95.9611 67° East 330 380 31,000 200 Climbing Fort Worth Center
Thu 02:18:55 PM 33.2244 -95.8392 76° East 362 417 31,000  Level Fort Worth Center
Thu 02:19:55 PM 33.2625 -95.7167 70° East 379 436 31,000  Level Fort Worth Center
Thu 02:20:55 PM 33.2961 -95.5942 72° East 389 448 31,000  Level Fort Worth Center
Thu 02:21:55 PM 33.3339 -95.4717 70° East 389 448 31,000  Level Fort Worth Center
Thu 02:22:55 PM 33.3675 -95.3489 72° East 389 448 31,000  Level Fort Worth Center
Thu 02:23:55 PM 33.4050 -95.2236 70° East 389 448 31,000  Level Fort Worth Center
Thu 02:24:55 PM 33.4383 -95.0983 72° East 389 448 31,000  Level Fort Worth Center
Thu 02:25:55 PM 33.4775 -94.9703 70° East 389 448 31,000  Level Fort Worth Center
Thu 02:26:55 PM 33.5128 -94.8497 71° East 389 448 31,000  Level Fort Worth Center
Thu 02:27:55 PM 33.5536 -94.7117 70° East 389 448 31,000 -450 Level Fort Worth Center
Thu 02:28:55 PM 33.5886 -94.5883 71° East 389 448 30,100 -950 Descending Fort Worth Center
Thu 02:29:55 PM 33.6233 -94.4600 72° East 389 448 29,100 -1,000 Descending Fort Worth Center
Thu 02:30:55 PM 33.6578 -94.3392 71° East 389 448 28,100 -1,000 Descending Fort Worth Center
Thu 02:31:55 PM 33.6944 -94.2181 70° East 384 442 27,100 -1,018 Descending Fort Worth Center
Thu 02:33:46 PM 33.7847 -94.0311 60° Northeast 380 437 25,200 -982 Descending Memphis Center
Thu 02:34:46 PM 33.8425 -93.9161 59° Northeast 375 432 24,300 -1,000 Descending Memphis Center
Thu 02:35:46 PM 33.8933 -93.8081 60° Northeast 369 425 23,200 -1,050 Descending Memphis Center
Thu 02:36:46 PM 33.9464 -93.7025 59° Northeast 369 425 22,200 -1,000 Descending Memphis Center
Thu 02:37:46 PM 33.9972 -93.5992 59° Northeast 369 425 21,200 -1,200 Descending Memphis Center
Thu 02:38:46 PM 34.0478 -93.4958 59° Northeast 369 425 19,800 -1,450 Descending Memphis Center
Thu 02:39:46 PM 34.0981 -93.3997 58° Northeast 354 407 18,300 -1,250 Descending Memphis Center
Thu 02:40:46 PM 34.1544 -93.3164 51° Northeast 338 389 17,300 -1,100 Descending Memphis Center
Thu 02:41:46 PM 34.2128 -93.2331 50° Northeast 324 373 16,100 -650 Descending Memphis Center
Thu 02:42:46 PM 34.2689 -93.1494 51° Northeast 314 361 16,000 -50 Descending Memphis Center
Thu 02:43:46 PM 34.3250 -93.0683 50° Northeast 314 361 16,000  Level Memphis Center
Thu 02:44:46 PM 34.3747 -92.9894 53° Northeast 320 368 16,000  Level Memphis Center
Thu 02:45:27 PM 34.4178 -92.9253 51° Northeast 324 373 16,000  Level Memphis Center
Thu 02:46:28 PM 34.4714 -92.8461 51° Northeast 324 373 16,000 -1,033 Level Memphis Center
Thu 02:47:29 PM 34.5317 -92.7572 51° Northeast 324 373 13,900 -2,087 Descending Memphis Center
Thu 02:48:23 PM 34.5789 -92.6878 50° Northeast 305 351 12,000 -2,191 Descending Memphis Center
Thu 02:49:24 PM 34.6344 -92.6061 50° Northeast 295 339 9,700 -2,060 Descending Memphis Center
Thu 02:50:37 PM 34.6944 -92.5167 51° Northeast 274 315 7,400 -1,563 Descending Memphis Center
Thu 02:51:46 PM 34.7458 -92.4397 51° Northeast 276 318 6,000 -661 Descending Memphis Center
Thu 02:52:44 PM 34.7931 -92.3725 49° Northeast 263 303 6,000 -504 Level Memphis Center
Thu 02:53:45 PM 34.8378 -92.3003 53° Northeast 263 303 5,000 -1,140 Descending Memphis Center
Thu 02:54:45 PM 34.8828 -92.2331 51° Northeast 250 288 3,700 -1,043 Descending Memphis Center
Thu 02:55:40 PM 34.9192 -92.1781 51° Northeast 229 264 3,000 -347 Descending Memphis Center
Thu 02:56:46 PM 34.9681 -92.1081 50° Northeast 230 265 3,000  Level Memphis Center
Thu 02:57:53 PM 35.0228 -92.0764 25° Northeast 223 257 3,000  Level Memphis Center
Thu 02:58:42 PM 35.0544 -92.0364 46° Northeast 210 242 3,000  Level Memphis Center
Thu 02:59:42 PM 35.0908 -91.9686 57° Northeast 220 253 3,000 -157 Level Memphis Center
Thu 03:00:37 PM 35.1186 -91.9133 58° Northeast 224 258 2,700 -393 Descending Memphis Center
Thu 03:01:44 PM 35.1508 -91.8478 59° Northeast 188 216 2,200 -448 Descending Memphis Center
Thu 03:03:00 PM 35.1997 -91.7338 47° Northeast  Level FlightAware Approximate
Thu 03:10:00 PM 35.2000 -91.7333 47° Northeast  Level FlightAware Approximate

Login

Don't have an account? Register now (free) for customized features, flight alerts, and more!